KGSB/GSB METAR and TAF weather

Enter ICAO airport designator
Station Type Date Time Source
KGSB METAR 2020/12/01 21:56 UTC NOAA

KGSB 012156Z AUTO 26014KT 10SM M 08/M04 M RMK AO2 SLPNO T00801041 TSNO CHINO RWY08 $


Station Type Date Time Source
KGSB Decoded METAR 2020/12/01 21:56 UTC NOAA

Seymour-Johnson Air Force Base, NC, United States (KGSB) 35-20N 077-58W
Dec 01, 2020 - 04:56 PM EST / 2020.12.01 2156 UTC
Wind: from the W (260 degrees) at 16 MPH (14 KT):0
Visibility: 10 mile(s):0
Temperature: 46.4 F (8.0 C)
Dew Point: 24.6 F (-4.1 C)
Relative Humidity: 42%
ob: KGSB 012156Z AUTO 26014KT 10SM M 08/M04 M RMK AO2 SLPNO T00801041 TSNO CHINO RWY08
cycle: 22

Station Type Date Time Source
KGSB TAF 2020/12/01 21:27 UTC NOAA

TAF KGSB 012100Z 0121/0303 27009KT 9999 SCT050 QNH2990INS
BECMG 0213/0214 28010G20KT 9999 SKC QNH3023INS
BECMG 0219/0220 30009KT 9999 SKC QNH3024INS TX10/0121Z TN01/0210Z

Example: see airport list